Time;durP1;ratioP1;P1;durP2;ratioP2;P2;SDS_P1;SDS_P2;PMS_P1;PMS_P2;Temp;Humidity;BMP_temperature;BMP_pressure;BME280_temperature;BME280_humidity;BME280_pressure;Samples;Min_cycle;Max_cycle;Signal;HPM_P1;HPM_P2
2021/01/31 00:02:19;;;;;;;10.52;7.53;;;3.50;77.60;;;;;;5036407;28;20041;-81
2021/01/31 00:04:46;;;;;;;9.23;6.40;;;3.50;77.60;;;;;;5044667;28;20509;-81
2021/01/31 00:07:13;;;;;;;10.65;6.88;;;3.50;77.60;;;;;;5035973;28;20013;-83
2021/01/31 00:09:39;;;;;;;10.23;7.30;;;3.50;77.60;;;;;;5049860;28;20039;-82
2021/01/31 00:12:05;;;;;;;9.32;6.53;;;3.50;77.60;;;;;;5031973;28;20361;-81
2021/01/31 00:14:31;;;;;;;9.82;6.80;;;3.50;77.60;;;;;;5034235;28;20528;-82
2021/01/31 00:16:57;;;;;;;8.63;6.35;;;3.50;77.60;;;;;;5033816;28;20031;-82
2021/01/31 00:19:23;;;;;;;9.20;6.65;;;3.40;77.50;;;;;;5031645;28;20069;-83
2021/01/31 00:21:48;;;;;;;10.23;7.15;;;3.40;77.50;;;;;;5067273;28;20047;-80
2021/01/31 00:24:14;;;;;;;9.45;6.22;;;3.50;77.50;;;;;;5036367;28;20029;-81
2021/01/31 00:26:40;;;;;;;8.80;6.65;;;3.40;77.50;;;;;;5012601;28;20036;-80
2021/01/31 00:29:06;;;;;;;10.05;6.97;;;3.40;77.50;;;;;;5043840;28;20618;-83
2021/01/31 00:31:31;;;;;;;9.43;6.78;;;3.40;77.50;;;;;;5043242;28;20029;-83
2021/01/31 00:33:57;;;;;;;8.57;6.63;;;3.40;77.50;;;;;;5024921;28;20370;-83
2021/01/31 00:36:23;;;;;;;10.05;6.70;;;3.40;77.50;;;;;;5037220;28;20028;-83
2021/01/31 00:38:49;;;;;;;9.25;6.63;;;3.40;77.50;;;;;;5020996;28;20054;-84
2021/01/31 00:41:14;;;;;;;9.60;6.68;;;3.40;77.50;;;;;;5050842;28;20485;-83
2021/01/31 00:43:40;;;;;;;9.65;6.53;;;3.40;77.50;;;;;;5023782;28;20033;-83
2021/01/31 00:46:08;;;;;;;9.43;6.65;;;3.40;77.50;;;;;;5025410;28;20048;-84
2021/01/31 00:48:34;;;;;;;9.65;7.70;;;3.30;77.40;;;;;;5035319;28;20473;-83
2021/01/31 00:50:59;;;;;;;9.43;6.95;;;3.30;77.40;;;;;;5046035;28;20051;-83
2021/01/31 00:53:26;;;;;;;9.00;6.70;;;3.30;77.40;;;;;;5046221;28;20492;-83
2021/01/31 00:56:03;;;;;;;9.38;6.55;;;3.30;77.40;;;;;;4998915;28;20029;-83
2021/01/31 00:58:38;;;;;;;9.25;6.63;;;3.30;77.30;;;;;;5020627;28;20037;-82
2021/01/31 01:01:04;;;;;;;9.00;6.80;;;3.30;77.40;;;;;;5047110;28;20039;-83
2021/01/31 01:03:29;;;;;;;10.30;6.95;;;3.30;77.40;;;;;;5035889;28;20477;-83
2021/01/31 01:06:00;;;;;;;9.93;6.90;;;3.30;77.40;;;;;;5020614;28;20033;-84
2021/01/31 01:08:26;;;;;;;11.02;6.88;;;3.20;77.30;;;;;;5017114;28;20033;-83
2021/01/31 01:10:51;;;;;;;9.10;6.40;;;3.30;77.40;;;;;;5023238;28;20021;-84
2021/01/31 01:13:17;;;;;;;9.60;6.82;;;3.30;77.40;;;;;;5035650;28;20040;-83
2021/01/31 01:15:43;;;;;;;9.88;6.90;;;3.20;77.40;;;;;;5071940;28;20037;-82
2021/01/31 01:18:08;;;;;;;10.25;6.80;;;3.20;77.40;;;;;;5020247;28;20036;-85
2021/01/31 01:20:34;;;;;;;8.45;6.35;;;3.20;77.40;;;;;;5037226;28;20025;-84
2021/01/31 01:23:00;;;;;;;10.23;6.95;;;3.20;77.40;;;;;;5025692;28;20036;-84
2021/01/31 01:25:26;;;;;;;9.23;6.47;;;3.20;77.40;;;;;;5032572;28;20040;-85
2021/01/31 01:27:53;;;;;;;10.77;6.72;;;3.20;77.40;;;;;;5035641;28;20461;-83
2021/01/31 01:30:24;;;;;;;9.93;6.93;;;3.10;77.40;;;;;;5048321;28;20032;-82
2021/01/31 01:32:49;;;;;;;10.30;7.05;;;3.10;77.30;;;;;;5036768;28;20021;-82
2021/01/31 01:35:16;;;;;;;9.50;6.50;;;3.10;77.30;;;;;;5039809;28;20039;-81
2021/01/31 01:37:41;;;;;;;9.95;6.78;;;3.10;77.30;;;;;;5054770;28;20020;-82
2021/01/31 01:40:17;;;;;;;9.93;6.93;;;3.10;77.30;;;;;;5001603;28;20025;-82
2021/01/31 01:42:43;;;;;;;9.13;6.75;;;3.10;77.40;;;;;;5054169;28;20047;-82
2021/01/31 01:45:09;;;;;;;9.85;7.13;;;3.10;77.30;;;;;;5055608;28;20115;-81
2021/01/31 01:47:37;;;;;;;9.88;7.15;;;3.10;77.30;;;;;;5035877;28;20051;-83
2021/01/31 01:50:18;;;;;;;10.25;6.95;;;3.10;77.40;;;;;;5047096;28;20130;-82
2021/01/31 01:52:44;;;;;;;8.38;6.15;;;3.10;77.40;;;;;;5044472;28;20056;-82
2021/01/31 01:55:16;;;;;;;9.32;6.57;;;3.10;77.40;;;;;;5051418;28;20057;-82
2021/01/31 01:57:54;;;;;;;9.90;7.22;;;3.00;77.30;;;;;;5033890;28;20032;-81
2021/01/31 02:00:21;;;;;;;9.52;6.70;;;3.00;77.30;;;;;;5039976;28;20063;-81
2021/01/31 02:03:01;;;;;;;9.25;6.57;;;3.00;77.30;;;;;;5040107;28;20024;-82
2021/01/31 02:05:27;;;;;;;8.77;6.78;;;3.00;77.30;;;;;;5037510;28;20033;-82
2021/01/31 02:07:53;;;;;;;10.48;6.97;;;3.00;77.30;;;;;;5032970;28;20067;-81
2021/01/31 02:10:22;;;;;;;9.45;7.03;;;3.00;77.30;;;;;;5023001;28;20035;-83
2021/01/31 02:12:50;;;;;;;10.77;7.10;;;3.00;77.40;;;;;;5029402;28;20048;-80
2021/01/31 02:15:18;;;;;;;10.10;7.15;;;2.90;77.30;;;;;;5040775;28;20057;-83
2021/01/31 02:17:49;;;;;;;9.75;7.20;;;2.90;77.30;;;;;;5043805;28;20227;-80
2021/01/31 02:20:36;;;;;;;9.95;7.15;;;2.90;77.30;;;;;;5046514;28;20025;-81
2021/01/31 02:23:30;;;;;;;10.15;6.93;;;2.90;77.40;;;;;;5028687;28;20029;-81
2021/01/31 02:26:10;;;;;;;8.57;6.43;;;2.90;77.40;;;;;;5027350;28;20108;-81
2021/01/31 02:28:42;;;;;;;9.75;7.22;;;2.90;77.30;;;;;;5044486;28;20055;-81
2021/01/31 02:31:13;;;;;;;9.07;6.85;;;2.90;77.30;;;;;;5046086;28;20074;-81
2021/01/31 02:34:00;;;;;;;10.00;6.93;;;2.90;77.30;;;;;;5045182;28;20514;-80
2021/01/31 02:37:08;;;;;;;9.15;6.30;;;2.90;77.30;;;;;;5071800;28;20024;-80
2021/01/31 02:39:51;;;;;;;9.25;6.65;;;2.80;77.30;;;;;;5070292;28;20353;-81
2021/01/31 02:42:32;;;;;;;9.98;7.28;;;2.80;77.30;;;;;;5037743;28;20056;-82
2021/01/31 02:45:16;;;;;;;9.82;7.22;;;2.80;77.30;;;;;;5036690;28;20040;-82
2021/01/31 02:47:54;;;;;;;9.85;6.90;;;2.80;77.30;;;;;;5022153;28;20366;-81
2021/01/31 02:50:25;;;;;;;10.48;6.78;;;2.80;77.30;;;;;;5030992;28;20087;-83
2021/01/31 02:53:15;;;;;;;9.88;7.00;;;2.80;77.30;;;;;;5039082;28;20036;-81
2021/01/31 02:55:56;;;;;;;9.02;6.90;;;2.80;77.30;;;;;;5054148;28;20036;-81
2021/01/31 02:58:26;;;;;;;10.27;7.20;;;2.80;77.30;;;;;;5040886;28;20029;-81
2021/01/31 03:00:54;;;;;;;9.20;6.68;;;2.80;77.30;;;;;;5065862;28;20045;-82
2021/01/31 03:03:30;;;;;;;10.02;7.30;;;2.70;77.30;;;;;;5035190;28;20389;-83
2021/01/31 03:06:00;;;;;;;10.07;6.82;;;2.70;77.30;;;;;;5047406;28;20060;-82
2021/01/31 03:08:33;;;;;;;9.25;6.53;;;2.70;77.30;;;;;;5039026;28;20031;-81
2021/01/31 03:11:29;;;;;;;9.23;6.80;;;2.70;77.30;;;;;;5046827;28;20052;-81
2021/01/31 03:14:26;;;;;;;9.20;6.80;;;2.70;77.30;;;;;;5044262;28;20072;-81
2021/01/31 03:16:57;;;;;;;9.70;7.07;;;2.70;77.30;;;;;;5042091;28;20037;-82
2021/01/31 03:19:33;;;;;;;9.60;6.80;;;2.70;77.20;;;;;;5043989;28;20022;-81
2021/01/31 03:22:03;;;;;;;8.70;6.30;;;2.70;77.30;;;;;;5059447;28;20054;-81
2021/01/31 03:24:34;;;;;;;7.63;5.95;;;2.70;77.30;;;;;;5046026;28;20099;-81
2021/01/31 03:27:12;;;;;;;10.32;7.70;;;2.70;77.30;;;;;;5035501;28;20398;-81
2021/01/31 03:29:38;;;;;;;9.07;6.47;;;2.70;77.30;;;;;;5065072;28;20017;-80
2021/01/31 03:32:21;;;;;;;9.63;6.75;;;2.70;77.30;;;;;;5035568;28;20036;-81
2021/01/31 03:34:53;;;;;;;9.75;6.97;;;2.60;77.30;;;;;;5028780;28;20062;-81
2021/01/31 03:37:23;;;;;;;9.68;7.10;;;2.60;77.20;;;;;;5031519;28;20385;-81
2021/01/31 03:39:51;;;;;;;9.57;6.47;;;2.60;77.20;;;;;;5028979;28;20021;-81
2021/01/31 03:42:17;;;;;;;9.32;6.95;;;2.60;77.20;;;;;;5034723;28;20091;-81
2021/01/31 03:44:43;;;;;;;10.40;6.95;;;2.60;77.20;;;;;;5040254;28;20473;-82
2021/01/31 03:47:22;;;;;;;9.15;6.95;;;2.60;77.20;;;;;;5053760;28;20028;-81
2021/01/31 03:49:57;;;;;;;9.35;7.13;;;2.60;77.20;;;;;;5066735;28;20110;-82
2021/01/31 03:52:26;;;;;;;9.63;6.53;;;2.60;77.20;;;;;;5036324;28;20032;-82
2021/01/31 03:54:53;;;;;;;9.95;7.03;;;2.50;77.20;;;;;;5036737;28;20043;-82
2021/01/31 03:57:30;;;;;;;10.55;7.45;;;2.60;77.20;;;;;;5050593;28;20028;-82
2021/01/31 04:00:14;;;;;;;9.98;7.03;;;2.60;77.30;;;;;;5044017;28;20512;-83
2021/01/31 04:02:56;;;;;;;9.80;7.15;;;2.60;77.30;;;;;;5021298;28;20029;-82
2021/01/31 04:05:24;;;;;;;8.88;6.35;;;2.50;77.20;;;;;;5021236;28;20104;-82
2021/01/31 04:07:53;;;;;;;10.32;7.43;;;2.50;77.20;;;;;;5039798;28;20158;-82
2021/01/31 04:10:19;;;;;;;9.75;6.85;;;2.50;77.20;;;;;;5053072;28;20066;-81
2021/01/31 04:12:50;;;;;;;10.02;7.07;;;2.50;77.20;;;;;;5070121;28;20228;-81
2021/01/31 04:15:16;;;;;;;10.35;6.93;;;2.50;77.20;;;;;;5043890;28;20064;-81
2021/01/31 04:17:43;;;;;;;9.80;7.10;;;2.50;77.20;;;;;;5027037;28;20109;-82
2021/01/31 04:20:10;;;;;;;9.85;6.57;;;2.50;77.20;;;;;;5028901;28;20032;-82
2021/01/31 04:22:36;;;;;;;9.07;6.20;;;2.50;77.20;;;;;;5017172;28;20028;-82
2021/01/31 04:25:02;;;;;;;10.07;7.13;;;2.50;77.20;;;;;;5048323;28;20399;-83
2021/01/31 04:27:27;;;;;;;10.30;7.30;;;2.50;77.80;;;;;;5023061;28;20134;-83
2021/01/31 04:29:53;;;;;;;9.98;7.40;;;2.50;77.20;;;;;;5034505;28;20025;-81
2021/01/31 04:32:19;;;;;;;9.18;6.80;;;2.50;77.30;;;;;;5017577;28;20420;-81
2021/01/31 04:34:44;;;;;;;9.75;7.03;;;2.50;77.20;;;;;;5048560;28;20029;-82
2021/01/31 04:37:10;;;;;;;9.88;7.05;;;2.40;77.10;;;;;;5028408;28;20033;-82
2021/01/31 04:39:36;;;;;;;9.88;7.25;;;2.40;77.10;;;;;;5029423;28;20067;-81
2021/01/31 04:42:02;;;;;;;9.18;6.38;;;2.40;77.20;;;;;;5033323;28;20393;-81
2021/01/31 04:44:28;;;;;;;10.95;7.30;;;2.40;77.20;;;;;;5031399;28;20017;-85
2021/01/31 04:47:06;;;;;;;9.23;6.80;;;2.40;77.20;;;;;;5042785;28;20526;-81
2021/01/31 04:50:03;;;;;;;9.32;6.85;;;2.40;77.20;;;;;;5029266;28;20021;-81
2021/01/31 04:52:31;;;;;;;8.98;6.72;;;2.40;77.30;;;;;;5045433;28;20472;-81
2021/01/31 04:55:41;;;;;;;8.50;5.90;;;2.40;77.10;;;;;;5033587;28;20488;-81
2021/01/31 04:58:12;;;;;;;10.88;7.10;;;2.40;77.20;;;;;;5006652;28;20038;-80
2021/01/31 05:00:48;;;;;;;9.93;6.82;;;2.40;77.10;;;;;;5025484;28;20029;-82
2021/01/31 05:03:15;;;;;;;8.20;6.25;;;2.30;77.10;;;;;;5026980;28;20032;-81
2021/01/31 05:05:50;;;;;;;9.57;7.13;;;2.30;77.10;;;;;;5014158;28;20025;-81
2021/01/31 05:08:22;;;;;;;8.90;6.32;;;2.30;77.20;;;;;;5072126;28;20428;-81
2021/01/31 05:11:02;;;;;;;10.85;7.00;;;2.30;77.20;;;;;;5039525;28;20035;-81
2021/01/31 05:13:48;;;;;;;9.10;6.57;;;2.30;77.20;;;;;;5039232;28;20025;-82
2021/01/31 05:16:16;;;;;;;10.27;7.18;;;2.30;77.20;;;;;;5056491;28;20052;-81
2021/01/31 05:18:53;;;;;;;10.13;7.60;;;2.30;77.10;;;;;;5022304;28;20044;-82
2021/01/31 05:21:22;;;;;;;8.90;6.78;;;2.30;77.20;;;;;;5046820;28;20020;-82
2021/01/31 05:23:54;;;;;;;9.02;6.45;;;2.30;77.10;;;;;;5031433;28;20084;-81
2021/01/31 05:26:20;;;;;;;10.00;6.82;;;2.30;77.20;;;;;;5055213;28;20435;-81
2021/01/31 05:28:52;;;;;;;9.82;7.45;;;2.30;77.10;;;;;;5038226;28;20086;-82
2021/01/31 05:31:19;;;;;;;10.27;7.18;;;2.30;77.10;;;;;;5054066;28;20020;-82
2021/01/31 05:34:03;;;;;;;9.80;7.25;;;2.30;77.20;;;;;;5035845;28;20115;-81
2021/01/31 05:36:32;;;;;;;9.52;6.93;;;2.20;77.20;;;;;;5049746;28;20064;-82
2021/01/31 05:38:58;;;;;;;8.85;6.38;;;2.20;77.10;;;;;;5050503;28;20024;-82
2021/01/31 05:41:33;;;;;;;10.95;7.00;;;2.20;77.10;;;;;;5053612;28;20031;-79
2021/01/31 05:44:09;;;;;;;;;;;2.20;77.20;;;;;;5038316;28;20461;-81
2021/01/31 05:46:43;;;;;;;8.30;6.13;;;2.20;77.10;;;;;;5066433;28;19908;-83
2021/01/31 05:49:31;;;;;;;9.55;7.22;;;2.20;77.00;;;;;;5056029;28;20024;-81
2021/01/31 05:51:57;;;;;;;9.48;6.78;;;2.20;77.00;;;;;;5053516;28;20089;-81
2021/01/31 05:54:28;;;;;;;8.43;6.10;;;2.20;77.10;;;;;;5049593;28;20032;-81
2021/01/31 05:56:55;;;;;;;9.88;7.05;;;2.10;77.00;;;;;;5037242;28;20028;-81
2021/01/31 05:59:21;;;;;;;11.70;7.53;;;2.20;77.10;;;;;;5047836;28;20021;-82
2021/01/31 06:01:50;;;;;;;9.82;6.72;;;2.10;77.10;;;;;;5053084;28;20103;-81
2021/01/31 06:04:17;;;;;;;9.65;7.43;;;2.10;77.10;;;;;;5037542;28;20057;-81
2021/01/31 06:06:44;;;;;;;10.15;7.20;;;2.10;77.10;;;;;;5036249;28;20124;-81
2021/01/31 06:09:34;;;;;;;9.68;6.75;;;2.10;77.10;;;;;;5040838;28;20025;-82
2021/01/31 06:12:06;;;;;;;8.52;6.63;;;2.10;77.10;;;;;;5058689;28;20086;-82
2021/01/31 06:14:33;;;;;;;9.63;7.03;;;2.10;77.00;;;;;;5050029;28;20115;-82
2021/01/31 06:17:15;;;;;;;9.57;6.65;;;2.10;77.00;;;;;;5051968;28;20028;-83
2021/01/31 06:19:43;;;;;;;9.52;6.80;;;2.10;77.20;;;;;;5032077;28;20040;-81
2021/01/31 06:22:11;;;;;;;9.85;6.80;;;2.10;77.10;;;;;;5047380;28;20039;-81
2021/01/31 06:24:36;;;;;;;9.27;6.57;;;2.00;77.10;;;;;;5050059;28;20111;-81
2021/01/31 06:27:04;;;;;;;11.05;7.93;;;2.10;77.20;;;;;;5038731;28;20120;-81
2021/01/31 06:29:36;;;;;;;9.88;7.13;;;2.00;77.10;;;;;;5045026;28;20100;-81
2021/01/31 06:32:05;;;;;;;10.15;7.47;;;2.00;77.10;;;;;;5028039;28;20036;-81
2021/01/31 06:34:31;;;;;;;9.10;6.75;;;2.00;77.10;;;;;;5031273;28;20484;-82
2021/01/31 06:37:18;;;;;;;9.80;7.18;;;2.00;77.00;;;;;;5019336;28;20030;-81
2021/01/31 06:40:01;;;;;;;10.38;6.90;;;2.00;77.10;;;;;;5041262;28;20116;-81
2021/01/31 06:42:51;;;;;;;8.82;7.05;;;2.00;77.10;;;;;;5036800;28;20468;-82
2021/01/31 06:45:25;;;;;;;11.05;7.53;;;2.00;77.20;;;;;;5047134;28;20599;-82
2021/01/31 06:48:04;;;;;;;9.48;7.60;;;2.00;77.00;;;;;;5068462;28;20544;-81
2021/01/31 06:50:47;;;;;;;9.23;6.95;;;2.00;77.10;;;;;;5054674;28;20032;-81
2021/01/31 06:53:15;;;;;;;10.45;7.32;;;1.90;77.00;;;;;;5034751;28;20021;-81
2021/01/31 06:55:53;;;;;;;9.68;6.68;;;2.00;77.00;;;;;;5046417;28;20036;-82
2021/01/31 06:58:31;;;;;;;9.30;6.78;;;1.90;77.00;;;;;;5032414;28;20465;-81
2021/01/31 07:01:13;;;;;;;9.45;6.68;;;1.90;77.00;;;;;;5048611;28;20115;-81
2021/01/31 07:03:42;;;;;;;10.25;6.93;;;1.90;77.10;;;;;;5025966;28;20085;-80
2021/01/31 07:06:34;;;;;;;10.93;6.97;;;1.90;77.00;;;;;;5050245;28;20032;-81
2021/01/31 07:09:08;;;;;;;10.02;7.63;;;1.90;77.00;;;;;;5047870;28;20044;-81
2021/01/31 07:11:47;;;;;;;9.65;6.72;;;1.90;77.00;;;;;;5054729;28;20028;-81
2021/01/31 07:14:47;;;;;;;10.30;7.03;;;1.90;77.00;;;;;;5052445;28;20052;-81
2021/01/31 07:17:29;;;;;;;9.60;6.57;;;1.80;77.00;;;;;;5049287;28;20021;-83
2021/01/31 07:19:57;;;;;;;11.02;7.85;;;1.80;77.00;;;;;;5051229;28;20477;-80
2021/01/31 07:22:45;;;;;;;10.07;7.30;;;1.80;77.00;;;;;;5049189;28;20038;-80
2021/01/31 07:25:17;;;;;;;10.68;7.63;;;1.80;77.10;;;;;;5032283;28;20104;-80
2021/01/31 07:27:53;;;;;;;9.88;7.25;;;1.80;77.00;;;;;;5034859;28;20170;-81
2021/01/31 07:30:21;;;;;;;10.70;7.35;;;1.80;77.00;;;;;;5045565;28;20029;-80
2021/01/31 07:33:08;;;;;;;9.93;6.25;;;1.80;77.00;;;;;;5064670;28;20032;-81
2021/01/31 07:35:48;;;;;;;10.95;7.43;;;1.80;77.10;;;;;;5043222;28;20027;-79
2021/01/31 07:38:19;;;;;;;10.82;7.65;;;1.80;77.00;;;;;;5055119;28;20039;-80
2021/01/31 07:40:48;;;;;;;10.32;7.38;;;1.80;77.00;;;;;;5069083;28;20115;-81
2021/01/31 07:43:18;;;;;;;10.25;7.40;;;1.80;77.00;;;;;;5052489;28;20059;-81
2021/01/31 07:45:44;;;;;;;11.02;7.20;;;1.80;77.10;;;;;;5046817;28;20024;-81
2021/01/31 07:48:30;;;;;;;10.38;7.38;;;1.80;77.00;;;;;;5033896;28;20029;-82
2021/01/31 07:50:57;;;;;;;10.05;7.18;;;1.70;77.00;;;;;;5045069;28;20036;-81
2021/01/31 07:53:38;;;;;;;10.35;7.15;;;1.70;76.90;;;;;;5027557;28;20032;-80
2021/01/31 07:56:24;;;;;;;11.63;7.60;;;1.70;77.00;;;;;;5033774;28;20029;-80
2021/01/31 07:58:51;;;;;;;10.57;7.32;;;1.70;77.00;;;;;;5033503;28;20051;-80
2021/01/31 08:01:42;;;;;;;11.82;7.63;;;1.70;76.90;;;;;;5030368;28;20392;-80
2021/01/31 08:04:17;;;;;;;10.20;6.88;;;1.70;77.00;;;;;;5048712;28;20118;-80
2021/01/31 08:06:48;;;;;;;;;;;1.70;77.00;;;;;;5040131;28;20028;-80
2021/01/31 08:09:27;;;;;;;9.30;6.25;;;1.70;77.00;;;;;;5071881;28;19908;-82
2021/01/31 08:12:05;;;;;;;9.75;6.80;;;1.70;76.90;;;;;;5040393;28;20047;-80
2021/01/31 08:15:05;;;;;;;9.75;6.95;;;1.70;76.90;;;;;;5052522;28;20127;-79
2021/01/31 08:17:54;;;;;;;10.77;7.22;;;1.70;77.00;;;;;;5047739;28;20053;-81
2021/01/31 08:20:26;;;;;;;9.57;6.88;;;1.70;77.00;;;;;;5059784;28;20029;-81
2021/01/31 08:22:53;;;;;;;10.25;6.93;;;1.60;77.00;;;;;;5044997;28;20037;-80
2021/01/31 08:25:18;;;;;;;10.73;6.80;;;1.60;77.00;;;;;;5024919;28;20029;-82
2021/01/31 08:27:49;;;;;;;10.57;7.28;;;1.60;77.10;;;;;;5042873;28;20363;-79
2021/01/31 08:30:39;;;;;;;10.63;7.53;;;1.60;77.10;;;;;;5046629;28;20120;-80
2021/01/31 08:33:24;;;;;;;10.00;7.05;;;1.60;77.10;;;;;;5049326;28;20028;-80
2021/01/31 08:35:49;;;;;;;10.38;6.88;;;1.60;77.10;;;;;;5035975;28;20021;-81
2021/01/31 08:38:28;;;;;;;12.60;8.10;;;1.60;77.00;;;;;;5046711;28;20025;-81
2021/01/31 08:43:48;;;;;;;9.98;6.85;;;1.60;77.00;;;;;;5072976;28;20072;-80
2021/01/31 08:46:24;;;;;;;10.05;7.07;;;1.60;77.20;;;;;;5001131;28;20037;-81
2021/01/31 08:48:51;;;;;;;11.93;7.97;;;1.60;77.10;;;;;;5049346;28;20052;-81
2021/01/31 08:51:23;;;;;;;11.32;7.53;;;1.60;77.00;;;;;;5036389;28;20031;-81
2021/01/31 08:54:11;;;;;;;11.93;8.20;;;1.60;77.10;;;;;;5037797;28;20037;-80
2021/01/31 08:56:44;;;;;;;9.82;6.80;;;1.70;77.20;;;;;;5054256;28;20059;-80
2021/01/31 08:59:29;;;;;;;9.35;6.65;;;1.60;77.10;;;;;;5043978;28;20094;-80
2021/01/31 09:01:58;;;;;;;12.32;7.82;;;1.60;77.10;;;;;;5039481;28;20033;-80
2021/01/31 09:04:26;;;;;;;10.20;6.95;;;1.70;77.20;;;;;;5041566;28;20068;-77
2021/01/31 09:06:53;;;;;;;9.80;7.35;;;1.60;77.10;;;;;;5051962;28;20071;-80
2021/01/31 09:09:24;;;;;;;11.13;8.20;;;1.60;77.20;;;;;;5043408;28;20034;-79
2021/01/31 09:11:59;;;;;;;10.15;7.22;;;1.60;77.20;;;;;;5048762;28;20036;-78
2021/01/31 09:14:27;;;;;;;10.95;7.95;;;1.70;77.20;;;;;;5042459;28;20376;-80
2021/01/31 09:17:08;;;;;;;10.57;7.10;;;1.70;77.20;;;;;;5024609;28;20033;-83
2021/01/31 09:19:34;;;;;;;10.80;7.30;;;1.70;77.30;;;;;;5037421;28;20043;-81
2021/01/31 09:22:03;;;;;;;11.50;8.10;;;1.70;77.20;;;;;;5036125;28;20442;-79
2021/01/31 09:24:33;;;;;;;10.38;7.50;;;1.70;77.20;;;;;;5048445;28;20060;-79
2021/01/31 09:27:00;;;;;;;11.55;7.28;;;1.70;77.30;;;;;;5036303;28;20354;-79
2021/01/31 09:29:29;;;;;;;10.70;7.25;;;1.70;77.30;;;;;;5046322;28;20461;-79
2021/01/31 09:32:01;;;;;;;9.90;7.05;;;1.70;77.30;;;;;;5034789;28;20107;-79
2021/01/31 09:34:28;;;;;;;9.52;7.07;;;1.80;77.30;;;;;;5040205;28;20029;-78
2021/01/31 09:37:09;;;;;;;11.98;7.60;;;1.70;77.30;;;;;;5050604;28;20056;-79
2021/01/31 09:39:37;;;;;;;11.18;7.57;;;1.80;77.40;;;;;;5055246;28;20055;-79
2021/01/31 09:42:04;;;;;;;11.88;7.88;;;1.80;77.30;;;;;;5051948;28;20041;-79
2021/01/31 09:44:34;;;;;;;10.85;7.40;;;1.80;77.40;;;;;;5041055;28;20040;-79
2021/01/31 09:47:01;;;;;;;9.55;7.35;;;1.80;77.40;;;;;;5039769;28;20032;-78
2021/01/31 09:49:28;;;;;;;9.77;7.25;;;1.80;77.40;;;;;;5048919;28;20033;-79
2021/01/31 09:52:08;;;;;;;10.15;7.20;;;1.90;77.50;;;;;;5013388;28;20021;-78
2021/01/31 09:54:35;;;;;;;10.40;7.75;;;1.90;77.60;;;;;;5032820;28;20021;-79
2021/01/31 09:57:20;;;;;;;10.10;7.05;;;1.90;77.50;;;;;;5025053;28;20025;-79
2021/01/31 09:59:46;;;;;;;10.57;7.20;;;1.90;77.60;;;;;;5037072;28;20105;-79
2021/01/31 10:02:20;;;;;;;11.35;7.55;;;1.90;77.50;;;;;;5019238;28;20066;-79
2021/01/31 10:04:57;;;;;;;10.38;7.43;;;1.90;77.50;;;;;;5051544;28;20086;-78
2021/01/31 10:07:32;;;;;;;10.43;7.10;;;1.90;77.60;;;;;;5043631;28;20032;-80
2021/01/31 10:09:58;;;;;;;;;;;2.00;77.60;;;;;;5050102;28;20094;-83
2021/01/31 10:12:32;;;;;;;9.30;6.50;;;2.00;77.60;;;;;;5066733;28;19978;-81
2021/01/31 10:14:58;;;;;;;11.88;7.55;;;2.00;77.50;;;;;;5037956;28;20136;-83
2021/01/31 10:17:44;;;;;;;9.80;6.90;;;2.00;77.50;;;;;;5065609;28;20108;-78
2021/01/31 10:20:34;;;;;;;12.75;8.05;;;2.00;77.80;;;;;;5060351;28;20024;-82
2021/01/31 10:23:02;;;;;;;10.60;7.15;;;2.00;77.70;;;;;;5038152;28;20047;-81
2021/01/31 10:25:29;;;;;;;10.15;7.22;;;2.00;77.60;;;;;;5044721;28;20082;-80
2021/01/31 10:27:58;;;;;;;11.07;7.35;;;2.10;77.80;;;;;;5054401;28;20384;-77
2021/01/31 10:30:28;;;;;;;9.82;6.55;;;2.10;77.80;;;;;;5060615;28;20449;-79
2021/01/31 10:32:55;;;;;;;10.70;7.13;;;2.10;77.80;;;;;;5035432;28;20451;-80
2021/01/31 10:35:39;;;;;;;9.93;6.88;;;2.20;77.90;;;;;;5039655;28;20036;-80
2021/01/31 10:38:31;;;;;;;10.30;6.72;;;2.20;78.60;;;;;;5028238;28;20025;-79
2021/01/31 10:40:59;;;;;;;10.85;7.78;;;2.20;78.00;;;;;;5033984;28;20078;-79
2021/01/31 10:43:26;;;;;;;11.25;7.40;;;2.20;77.80;;;;;;5047785;28;20127;-80
2021/01/31 10:45:53;;;;;;;11.65;7.57;;;2.20;77.90;;;;;;5032345;28;20551;-78
2021/01/31 10:48:19;;;;;;;11.52;7.03;;;2.20;78.00;;;;;;5037566;28;21611;-78
2021/01/31 10:50:45;;;;;;;11.35;7.38;;;2.20;78.00;;;;;;5030366;28;20032;-78
2021/01/31 10:53:11;;;;;;;10.10;7.30;;;2.20;78.00;;;;;;5066397;28;20112;-79
2021/01/31 10:55:37;;;;;;;11.98;7.65;;;2.30;78.00;;;;;;5037389;28;20116;-78
2021/01/31 10:58:02;;;;;;;10.70;7.32;;;2.30;78.10;;;;;;5033743;28;20116;-78
2021/01/31 11:00:28;;;;;;;12.70;8.00;;;2.30;78.10;;;;;;5048994;28;20370;-78
2021/01/31 11:02:54;;;;;;;10.45;7.07;;;2.30;78.00;;;;;;5069148;28;20041;-77
2021/01/31 11:05:20;;;;;;;9.95;7.22;;;2.30;78.00;;;;;;5052627;28;20021;-78
2021/01/31 11:07:46;;;;;;;10.25;7.32;;;2.30;78.00;;;;;;5053971;28;20119;-77
2021/01/31 11:10:13;;;;;;;11.60;7.78;;;2.40;78.10;;;;;;5050762;28;20086;-77
2021/01/31 11:12:39;;;;;;;9.38;6.47;;;2.40;78.10;;;;;;5050664;28;20074;-78
2021/01/31 11:15:07;;;;;;;10.80;7.82;;;2.40;78.10;;;;;;5044748;28;20032;-79
2021/01/31 11:17:33;;;;;;;9.93;7.03;;;2.40;78.10;;;;;;5040737;28;20028;-79
2021/01/31 11:19:58;;;;;;;11.65;8.38;;;2.40;78.10;;;;;;5024108;28;20473;-79
2021/01/31 11:22:24;;;;;;;11.18;7.55;;;2.40;78.10;;;;;;5042539;28;20063;-82
2021/01/31 11:24:50;;;;;;;11.20;7.88;;;2.40;78.10;;;;;;5045728;28;20032;-81
2021/01/31 11:27:16;;;;;;;10.55;7.63;;;2.50;78.20;;;;;;5036788;28;20033;-83
2021/01/31 11:29:41;;;;;;;10.40;7.15;;;2.50;78.20;;;;;;5059748;28;20033;-81
2021/01/31 11:32:07;;;;;;;10.70;7.05;;;2.50;78.20;;;;;;5026302;28;20029;-83
2021/01/31 11:34:34;;;;;;;10.80;7.13;;;2.50;78.20;;;;;;5044217;28;20046;-80
2021/01/31 11:36:59;;;;;;;10.57;7.70;;;2.60;78.30;;;;;;5047532;28;20447;-80
2021/01/31 11:39:25;;;;;;;10.82;8.15;;;2.50;78.20;;;;;;5051775;28;20032;-82
2021/01/31 11:41:51;;;;;;;12.27;7.93;;;2.60;78.20;;;;;;5049339;28;20131;-79
2021/01/31 11:44:17;;;;;;;11.70;8.00;;;2.60;78.20;;;;;;5027627;28;20049;-77
2021/01/31 11:46:42;;;;;;;11.32;7.38;;;2.60;78.30;;;;;;4995135;28;20036;-81
2021/01/31 11:49:08;;;;;;;10.48;7.53;;;2.60;78.20;;;;;;5013724;28;20025;-79
2021/01/31 11:51:34;;;;;;;11.18;7.78;;;2.60;78.30;;;;;;5034649;28;20033;-79
2021/01/31 11:54:00;;;;;;;9.90;6.70;;;2.70;78.30;;;;;;5025261;28;20119;-79
2021/01/31 11:56:26;;;;;;;11.05;7.40;;;2.70;78.30;;;;;;5042579;28;20107;-80
2021/01/31 11:58:51;;;;;;;10.55;7.68;;;2.70;78.30;;;;;;5027009;28;20105;-79
2021/01/31 12:01:17;;;;;;;9.50;7.13;;;2.70;78.30;;;;;;5036702;28;20489;-78
2021/01/31 12:03:47;;;;;;;10.43;7.43;;;2.70;78.30;;;;;;5050694;28;20032;-77
2021/01/31 12:06:13;;;;;;;10.93;7.97;;;2.70;79.00;;;;;;5045617;28;20033;-76
2021/01/31 12:08:39;;;;;;;10.57;7.30;;;2.70;78.30;;;;;;5026462;28;20033;-77
2021/01/31 12:11:06;;;;;;;10.65;6.97;;;2.80;78.40;;;;;;5036350;28;20469;-77
2021/01/31 12:13:32;;;;;;;10.68;7.43;;;2.70;78.40;;;;;;5051965;28;20052;-77
2021/01/31 12:15:58;;;;;;;10.95;7.43;;;2.80;78.40;;;;;;5014080;28;20033;-74
2021/01/31 12:18:25;;;;;;;10.60;7.18;;;2.80;78.40;;;;;;5026674;28;20413;-75
2021/01/31 12:20:51;;;;;;;10.30;6.95;;;2.80;78.40;;;;;;5040757;28;20025;-75
2021/01/31 12:23:18;;;;;;;11.05;7.47;;;2.90;78.50;;;;;;5025362;28;20043;-75
2021/01/31 12:25:43;;;;;;;11.57;7.32;;;2.90;78.50;;;;;;5048637;28;20177;-75
2021/01/31 12:28:09;;;;;;;9.80;6.80;;;2.90;78.50;;;;;;5034351;28;20039;-77
2021/01/31 12:30:35;;;;;;;9.63;7.03;;;2.90;78.50;;;;;;5036805;28;20074;-75
2021/01/31 12:33:02;;;;;;;10.13;6.70;;;2.90;78.50;;;;;;5033213;28;20068;-76
2021/01/31 12:35:29;;;;;;;9.73;6.60;;;2.90;78.50;;;;;;5048534;28;20025;-76
2021/01/31 12:37:56;;;;;;;10.05;6.88;;;2.90;78.50;;;;;;5064349;28;20033;-75
2021/01/31 12:40:24;;;;;;;10.10;6.95;;;3.00;78.50;;;;;;5052656;28;20024;-76
2021/01/31 12:42:50;;;;;;;9.77;6.80;;;3.00;78.50;;;;;;5048225;28;20053;-76
2021/01/31 12:45:18;;;;;;;11.13;7.40;;;3.00;78.50;;;;;;5035540;28;20544;-75
2021/01/31 12:47:43;;;;;;;10.57;7.10;;;3.00;78.50;;;;;;5043296;28;20029;-76
2021/01/31 12:50:10;;;;;;;11.07;7.78;;;3.10;78.60;;;;;;5003488;28;20031;-80
2021/01/31 12:52:37;;;;;;;8.00;5.75;;;3.10;78.60;;;;;;5052813;28;20037;-76
2021/01/31 12:55:04;;;;;;;9.52;6.65;;;3.10;78.60;;;;;;5028399;28;20068;-76
2021/01/31 12:57:29;;;;;;;9.55;7.10;;;3.20;78.60;;;;;;5034335;28;20053;-77
2021/01/31 12:59:56;;;;;;;9.48;6.47;;;3.20;78.60;;;;;;5042821;28;20067;-77
2021/01/31 13:02:22;;;;;;;10.38;7.10;;;3.20;78.60;;;;;;5033218;28;20042;-75
2021/01/31 13:04:48;;;;;;;10.25;7.47;;;3.20;78.60;;;;;;5031365;28;20032;-75
2021/01/31 13:07:13;;;;;;;8.82;6.38;;;3.30;78.70;;;;;;5023528;28;20049;-75
2021/01/31 13:09:39;;;;;;;9.50;6.45;;;3.30;78.70;;;;;;5032223;28;20035;-75
2021/01/31 13:12:05;;;;;;;9.90;7.00;;;3.30;78.70;;;;;;5049996;28;20094;-76
2021/01/31 13:14:31;;;;;;;9.30;6.28;;;3.40;78.70;;;;;;5036158;28;20039;-76
2021/01/31 13:16:57;;;;;;;9.65;6.70;;;3.40;78.70;;;;;;5024714;28;20428;-76
2021/01/31 13:19:23;;;;;;;8.70;6.45;;;3.40;79.30;;;;;;5034137;28;20036;-75